createdAt,value
2023-09-05T00:00:56.435Z,102089.69
2023-09-05T00:06:05.897Z,102080.13
2023-09-05T00:11:09.213Z,102086.34
2023-09-05T00:16:12.202Z,102079.59
2023-09-05T00:21:19.764Z,102080.69
2023-09-05T00:26:22.829Z,102088.91
2023-09-05T00:31:26.483Z,102080.50
2023-09-05T00:36:31.836Z,102070.78
2023-09-05T00:41:36.470Z,102071.00
2023-09-05T00:46:40.238Z,102061.19
2023-09-05T00:51:47.039Z,102063.03
2023-09-05T00:56:50.340Z,102050.13
2023-09-05T01:01:53.259Z,102054.72
2023-09-05T01:07:03.956Z,102047.91
2023-09-05T01:12:07.295Z,102046.38
2023-09-05T01:17:10.220Z,102040.94
2023-09-05T01:22:19.652Z,102023.19
2023-09-05T01:27:26.106Z,102008.22
2023-09-05T01:32:29.032Z,102000.16
2023-09-05T01:37:31.867Z,102008.72
2023-09-05T01:42:36.104Z,101994.63
2023-09-05T01:47:38.989Z,101990.84
2023-09-05T01:52:41.898Z,101989.84
2023-09-05T01:57:46.093Z,101980.97
2023-09-05T02:02:49.070Z,101976.44
2023-09-05T02:07:52.196Z,101975.59
2023-09-05T02:12:56.408Z,101970.50
2023-09-05T02:18:01.913Z,101957.41
2023-09-05T02:23:05.223Z,101960.63
2023-09-05T02:28:09.615Z,101947.66
2023-09-05T02:33:12.593Z,101951.88
2023-09-05T02:38:15.556Z,101954.03
2023-09-05T02:43:19.861Z,101964.78
2023-09-05T02:48:22.995Z,101965.63
2023-09-05T02:53:25.942Z,101975.53
2023-09-05T02:58:33.227Z,101967.38
2023-09-05T03:03:36.302Z,101970.81
2023-09-05T03:08:39.955Z,101967.81
2023-09-05T03:13:45.477Z,101972.16
2023-09-05T03:18:48.729Z,101956.28
2023-09-05T03:23:51.660Z,101951.16
2023-09-05T03:28:57.064Z,101954.34
2023-09-05T03:34:00.056Z,101956.69
2023-09-05T03:39:03.033Z,101951.53
2023-09-05T03:44:07.737Z,101947.34
2023-09-05T03:49:10.727Z,101946.50
2023-09-05T03:54:14.212Z,101949.34
2023-09-05T03:59:18.795Z,101948.50
2023-09-05T04:04:21.734Z,101947.16
2023-09-05T04:09:24.701Z,101931.25
2023-09-05T04:14:30.914Z,101925.75
2023-09-05T04:19:33.817Z,101924.31
2023-09-05T04:24:36.662Z,101919.53
2023-09-05T04:29:40.977Z,101916.16
2023-09-05T04:34:44.226Z,101914.56
2023-09-05T04:39:47.081Z,101910.53
2023-09-05T04:44:54.286Z,101912.19
2023-09-05T04:49:59.548Z,101919.16
2023-09-05T04:55:02.663Z,101911.84
2023-09-05T05:00:08.832Z,101915.16
2023-09-05T05:05:13.150Z,101905.84
2023-09-05T05:10:16.358Z,101906.91
2023-09-05T05:15:20.798Z,101918.66
2023-09-05T05:20:23.761Z,101921.47
2023-09-05T05:25:31.154Z,101913.06
2023-09-05T05:30:37.991Z,101911.00
2023-09-05T05:35:41.193Z,101914.31
2023-09-05T05:40:44.210Z,101925.03
2023-09-05T05:45:51.017Z,101907.91
2023-09-05T05:50:58.030Z,101907.53
2023-09-05T05:56:01.183Z,101913.19
2023-09-05T06:01:07.976Z,101923.41
2023-09-05T06:06:10.908Z,101916.28
2023-09-05T06:11:14.244Z,101922.56
2023-09-05T06:16:18.639Z,101924.03
2023-09-05T06:21:21.629Z,101919.97
2023-09-05T06:26:24.731Z,101914.94
2023-09-05T06:31:29.247Z,101914.94
2023-09-05T06:36:34.038Z,101916.13
2023-09-05T06:41:39.337Z,101913.41
2023-09-05T06:46:46.298Z,101919.28
2023-09-05T06:51:51.295Z,101919.25
2023-09-05T06:56:54.480Z,101912.25
2023-09-05T07:01:58.918Z,101905.69
2023-09-05T07:07:04.504Z,101891.81
2023-09-05T07:12:09.203Z,101894.66
2023-09-05T07:17:13.621Z,101891.06
2023-09-05T07:22:16.636Z,101879.50
2023-09-05T07:27:21.499Z,101878.94
2023-09-05T07:32:25.919Z,101878.84
2023-09-05T07:37:28.934Z,101879.75
2023-09-05T07:42:31.892Z,101877.13
2023-09-05T07:47:36.322Z,101874.22
2023-09-05T07:52:39.341Z,101872.88
2023-09-05T07:57:43.270Z,101877.63
2023-09-05T08:02:49.745Z,101871.19
2023-09-05T08:07:52.872Z,101885.56
2023-09-05T08:12:56.213Z,101885.81
2023-09-05T08:18:00.536Z,101890.63
2023-09-05T08:23:03.371Z,101894.59
2023-09-05T08:28:07.430Z,101891.25
2023-09-05T08:33:11.910Z,101881.19
2023-09-05T08:38:15.107Z,101870.31
2023-09-05T08:43:18.576Z,101877.34
2023-09-05T08:48:23.409Z,101869.69
2023-09-05T08:53:33.609Z,101870.72
2023-09-05T08:58:37.050Z,101871.44
2023-09-05T09:03:41.489Z,101878.66
2023-09-05T09:08:45.576Z,101878.06
2023-09-05T09:14:14.622Z,101873.34
2023-09-05T09:19:18.925Z,101868.31
2023-09-05T09:24:21.856Z,101881.72
2023-09-05T09:29:24.938Z,101891.72
2023-09-05T09:34:29.376Z,101898.13
2023-09-05T09:39:33.626Z,101901.94
2023-09-05T09:44:37.544Z,101902.06
2023-09-05T09:49:46.554Z,101901.28
2023-09-05T09:54:52.221Z,101894.09
2023-09-05T10:00:00.933Z,101889.41
2023-09-05T10:05:08.259Z,101884.38
2023-09-05T10:10:16.719Z,101879.84
2023-09-05T10:15:21.317Z,101866.94
2023-09-05T10:20:28.647Z,101856.16
2023-09-05T10:25:32.193Z,101850.81
2023-09-05T10:30:40.973Z,101848.91
2023-09-05T10:35:52.816Z,101848.03
2023-09-05T10:40:55.968Z,101841.44
2023-09-05T10:46:01.140Z,101836.97
2023-09-05T10:51:11.640Z,101840.25
2023-09-05T10:56:40.365Z,101844.34
2023-09-05T11:01:49.857Z,101850.56
2023-09-05T11:07:01.730Z,101840.44
2023-09-05T11:12:07.592Z,101838.72
2023-09-05T11:17:17.424Z,101838.75
2023-09-05T11:22:23.818Z,101832.34
2023-09-05T11:27:30.169Z,101822.59
2023-09-05T11:32:34.816Z,101821.56
2023-09-05T11:37:39.426Z,101811.88
2023-09-05T11:42:44.770Z,101809.25
2023-09-05T11:47:48.833Z,101806.03
2023-09-05T11:52:54.236Z,101806.63
2023-09-05T11:57:59.491Z,101804.81
2023-09-05T12:03:02.573Z,101808.59
2023-09-05T12:08:18.748Z,101803.03
2023-09-05T12:13:39.255Z,101792.25
2023-09-05T12:18:45.336Z,101785.47
2023-09-05T12:23:51.553Z,101782.91
2023-09-05T12:28:59.326Z,101775.25
2023-09-05T12:34:02.263Z,101772.72
2023-09-05T12:39:06.950Z,101773.78
2023-09-05T12:44:09.999Z,101782.72
2023-09-05T12:49:13.880Z,101770.41
2023-09-05T12:54:18.289Z,101769.91
2023-09-05T12:59:25.377Z,101768.06
2023-09-05T13:04:31.125Z,101765.63
2023-09-05T13:09:35.529Z,101759.41
2023-09-05T13:14:38.500Z,101761.22
2023-09-05T13:19:42.077Z,101761.22
2023-09-05T13:24:47.480Z,101760.97
2023-09-05T13:29:51.434Z,101763.78
2023-09-05T13:34:55.137Z,101753.75
2023-09-05T13:39:59.526Z,101753.03
2023-09-05T13:45:03.087Z,101746.38
2023-09-05T13:50:07.927Z,101741.56
2023-09-05T13:55:12.699Z,101730.41
2023-09-05T14:00:16.540Z,101732.28
2023-09-05T14:05:21.429Z,101719.38
2023-09-05T14:10:25.843Z,101722.00
2023-09-05T14:15:28.937Z,101721.00
2023-09-05T14:20:31.952Z,101719.25
2023-09-05T14:25:36.553Z,101714.69
2023-09-05T14:30:39.517Z,101711.50
2023-09-05T14:35:42.525Z,101709.19
2023-09-05T14:40:46.928Z,101699.44
2023-09-05T14:45:50.065Z,101703.69
2023-09-05T14:50:53.143Z,101695.28
2023-09-05T14:55:57.528Z,101691.03
2023-09-05T15:01:00.535Z,101695.75
2023-09-05T15:06:03.605Z,101674.34
2023-09-05T15:11:08.782Z,101684.00
2023-09-05T15:16:11.984Z,101686.94
2023-09-05T15:21:15.119Z,101678.09
2023-09-05T15:26:19.945Z,101685.25
2023-09-05T15:31:23.049Z,101674.63
2023-09-05T15:36:26.156Z,101671.00
2023-09-05T15:41:30.696Z,101675.97
2023-09-05T15:46:34.057Z,101654.66
2023-09-05T15:51:37.164Z,101665.78
2023-09-05T15:56:41.626Z,101657.19
2023-09-05T16:01:44.686Z,101646.88
2023-09-05T16:06:47.702Z,101654.88
2023-09-05T16:11:52.074Z,101647.00
2023-09-05T16:16:57.843Z,101651.47
2023-09-05T16:22:00.900Z,101651.63
2023-09-05T16:27:05.770Z,101647.72
2023-09-05T16:32:08.730Z,101639.09
2023-09-05T16:37:16.076Z,101639.03
2023-09-05T16:42:20.872Z,101646.38
2023-09-05T16:47:23.906Z,101642.75
2023-09-05T16:52:26.909Z,101652.09
2023-09-05T16:57:31.257Z,101651.69
2023-09-05T17:02:34.317Z,101656.53
2023-09-05T17:07:37.379Z,101654.38
2023-09-05T17:12:41.894Z,101653.72
2023-09-05T17:17:44.936Z,101657.69
2023-09-05T17:22:48.127Z,101660.78
2023-09-05T17:27:52.628Z,101667.50
2023-09-05T17:32:55.707Z,101670.53
2023-09-05T17:37:58.806Z,101675.59
2023-09-05T17:43:03.462Z,101676.47
2023-09-05T17:48:07.314Z,101680.00
2023-09-05T17:53:10.957Z,101693.69
2023-09-05T17:58:15.382Z,101701.47
2023-09-05T18:03:24.113Z,101701.69
2023-09-05T18:08:27.586Z,101707.84
2023-09-05T18:13:32.018Z,101710.38
2023-09-05T18:18:35.522Z,101715.25
2023-09-05T18:23:40.012Z,101720.25
2023-09-05T18:28:44.454Z,101720.81
2023-09-05T18:33:47.579Z,101722.06
2023-09-05T18:38:50.584Z,101711.25
2023-09-05T18:43:55.614Z,101714.00
2023-09-05T18:48:58.657Z,101720.75
2023-09-05T18:54:01.690Z,101718.06
2023-09-05T18:59:06.194Z,101723.91
2023-09-05T19:04:09.423Z,101734.16
2023-09-05T19:09:14.571Z,101737.16
2023-09-05T19:14:18.929Z,101735.78
2023-09-05T19:19:21.929Z,101756.41
2023-09-05T19:24:24.895Z,101752.47
2023-09-05T19:29:30.013Z,101758.91
2023-09-05T19:34:33.350Z,101759.88
2023-09-05T19:39:36.330Z,101752.44
2023-09-05T19:44:41.094Z,101754.50
2023-09-05T19:49:44.029Z,101744.03
2023-09-05T19:54:47.217Z,101748.84
2023-09-05T19:59:53.368Z,101757.38
2023-09-05T20:04:58.451Z,101761.03
2023-09-05T20:10:01.406Z,101760.50
2023-09-05T20:15:06.639Z,101767.00
2023-09-05T20:20:13.615Z,101768.06
2023-09-05T20:25:16.546Z,101773.97
2023-09-05T20:30:21.051Z,101778.00
2023-09-05T20:35:24.152Z,101775.13
2023-09-05T20:40:27.126Z,101778.19
2023-09-05T20:45:32.394Z,101775.72
2023-09-05T20:50:35.820Z,101779.44
2023-09-05T20:55:38.753Z,101785.19
2023-09-05T21:00:43.205Z,101789.00
2023-09-05T21:05:46.223Z,101793.91
2023-09-05T21:10:49.155Z,101787.28
2023-09-05T21:15:58.003Z,101787.03
2023-09-05T21:21:00.969Z,101786.47
2023-09-05T21:26:05.045Z,101778.84
2023-09-05T21:31:09.499Z,101785.66
2023-09-05T21:36:12.436Z,101781.94
2023-09-05T21:41:15.371Z,101777.75
2023-09-05T21:46:19.660Z,101775.28
2023-09-05T21:51:22.620Z,101754.88
2023-09-05T21:56:25.598Z,101754.22
2023-09-05T22:01:31.894Z,101757.38
2023-09-05T22:06:36.266Z,101751.75
2023-09-05T22:11:39.207Z,101762.34
2023-09-05T22:16:45.248Z,101771.84
2023-09-05T22:21:48.288Z,101765.00
2023-09-05T22:26:51.228Z,101775.13
2023-09-05T22:31:55.883Z,101772.47
2023-09-05T22:36:59.026Z,101768.25
2023-09-05T22:42:02.020Z,101771.94
2023-09-05T22:47:06.602Z,101772.25
2023-09-05T22:52:10.249Z,101775.88
2023-09-05T22:57:13.177Z,101785.03
2023-09-05T23:02:17.469Z,101785.50
2023-09-05T23:07:20.511Z,101786.00
2023-09-05T23:12:23.982Z,101775.03
2023-09-05T23:17:31.668Z,101770.00
2023-09-05T23:22:34.839Z,101776.34
2023-09-05T23:27:37.792Z,101780.25
2023-09-05T23:32:43.025Z,101782.53
2023-09-05T23:37:46.239Z,101783.22
2023-09-05T23:42:49.254Z,101790.28
2023-09-05T23:47:55.134Z,101792.09
2023-09-05T23:52:59.456Z,101777.19
2023-09-05T23:58:02.583Z,101781.69
